sensor_id;sensor_type;location;lat;lon;timestamp;pressure;altitude;pressure_sealevel;temperature;humidity
61906;BME280;47863;55.766;37.672;2024-02-26T00:01:23;100983.09;;;-1.36;69.29
61906;BME280;47863;55.766;37.672;2024-02-26T00:03:49;101001.38;;;-1.33;69.74
61906;BME280;47863;55.766;37.672;2024-02-26T00:06:15;101010.06;;;-1.31;69.76
61906;BME280;47863;55.766;37.672;2024-02-26T00:08:41;100967.75;;;-1.49;68.63
61906;BME280;47863;55.766;37.672;2024-02-26T00:11:06;100947.25;;;-1.63;68.62
61906;BME280;47863;55.766;37.672;2024-02-26T00:13:32;100990.13;;;-1.37;68.65
61906;BME280;47863;55.766;37.672;2024-02-26T00:15:58;101000.69;;;-1.38;68.90
61906;BME280;47863;55.766;37.672;2024-02-26T00:18:23;100996.34;;;-1.40;69.06
61906;BME280;47863;55.766;37.672;2024-02-26T00:20:49;100945.00;;;-1.73;68.57
61906;BME280;47863;55.766;37.672;2024-02-26T00:23:15;100981.34;;;-1.61;68.26
61906;BME280;47863;55.766;37.672;2024-02-26T00:25:41;100986.97;;;-1.47;68.50
61906;BME280;47863;55.766;37.672;2024-02-26T00:28:09;100987.88;;;-1.48;69.14
61906;BME280;47863;55.766;37.672;2024-02-26T00:30:35;100999.97;;;-1.42;68.19
61906;BME280;47863;55.766;37.672;2024-02-26T00:33:01;100933.94;;;-1.82;68.62
61906;BME280;47863;55.766;37.672;2024-02-26T00:35:27;100959.56;;;-1.65;68.33
61906;BME280;47863;55.766;37.672;2024-02-26T00:37:53;100987.75;;;-1.45;68.46
61906;BME280;47863;55.766;37.672;2024-02-26T00:40:19;100991.38;;;-1.47;68.64
61906;BME280;47863;55.766;37.672;2024-02-26T00:42:44;100960.56;;;-1.67;68.37
61906;BME280;47863;55.766;37.672;2024-02-26T00:45:12;100983.44;;;-1.46;68.35
61906;BME280;47863;55.766;37.672;2024-02-26T00:47:38;100976.44;;;-1.47;68.83
61906;BME280;47863;55.766;37.672;2024-02-26T00:50:07;100983.44;;;-1.46;68.32
61906;BME280;47863;55.766;37.672;2024-02-26T00:52:34;100968.00;;;-1.55;68.26
61906;BME280;47863;55.766;37.672;2024-02-26T00:55:00;100975.81;;;-1.53;68.15
61906;BME280;47863;55.766;37.672;2024-02-26T00:57:25;100955.13;;;-1.63;68.31
61906;BME280;47863;55.766;37.672;2024-02-26T00:59:51;100972.25;;;-1.52;68.47
61906;BME280;47863;55.766;37.672;2024-02-26T01:02:17;100959.47;;;-1.62;69.12
61906;BME280;47863;55.766;37.672;2024-02-26T01:04:42;100947.41;;;-1.67;69.24
61906;BME280;47863;55.766;37.672;2024-02-26T01:07:08;100931.22;;;-1.80;69.08
61906;BME280;47863;55.766;37.672;2024-02-26T01:09:34;100975.88;;;-1.55;69.28
61906;BME280;47863;55.766;37.672;2024-02-26T01:12:00;100977.66;;;-1.55;69.62
61906;BME280;47863;55.766;37.672;2024-02-26T01:14:25;100943.28;;;-1.74;68.96
61906;BME280;47863;55.766;37.672;2024-02-26T01:16:51;100975.16;;;-1.60;69.05
61906;BME280;47863;55.766;37.672;2024-02-26T01:19:16;100973.47;;;-1.61;68.96
61906;BME280;47863;55.766;37.672;2024-02-26T01:21:42;100926.31;;;-1.89;69.43
61906;BME280;47863;55.766;37.672;2024-02-26T01:24:08;100985.69;;;-1.60;69.72
61906;BME280;47863;55.766;37.672;2024-02-26T01:26:33;100970.66;;;-1.56;68.83
61906;BME280;47863;55.766;37.672;2024-02-26T01:28:59;100940.06;;;-1.83;68.78
61906;BME280;47863;55.766;37.672;2024-02-26T01:31:24;100991.72;;;-1.58;68.26
61906;BME280;47863;55.766;37.672;2024-02-26T01:33:50;100951.16;;;-1.74;67.87
61906;BME280;47863;55.766;37.672;2024-02-26T01:36:15;100978.53;;;-1.56;68.15
61906;BME280;47863;55.766;37.672;2024-02-26T01:38:41;100940.81;;;-1.79;68.00
61906;BME280;47863;55.766;37.672;2024-02-26T01:41:07;100921.50;;;-1.78;68.15
61906;BME280;47863;55.766;37.672;2024-02-26T01:43:32;100954.09;;;-1.58;68.92
61906;BME280;47863;55.766;37.672;2024-02-26T01:45:58;100972.91;;;-1.46;68.93
61906;BME280;47863;55.766;37.672;2024-02-26T01:48:24;100954.06;;;-1.57;69.08
61906;BME280;47863;55.766;37.672;2024-02-26T01:50:50;100978.94;;;-1.42;68.15
61906;BME280;47863;55.766;37.672;2024-02-26T01:53:16;100966.50;;;-1.38;67.47
61906;BME280;47863;55.766;37.672;2024-02-26T01:55:42;100965.00;;;-1.44;68.33
61906;BME280;47863;55.766;37.672;2024-02-26T01:58:08;100964.28;;;-1.49;68.28
61906;BME280;47863;55.766;37.672;2024-02-26T02:00:34;100954.34;;;-1.41;67.30
61906;BME280;47863;55.766;37.672;2024-02-26T02:03:01;100943.72;;;-1.62;68.11
61906;BME280;47863;55.766;37.672;2024-02-26T02:05:28;100943.78;;;-1.40;66.92
61906;BME280;47863;55.766;37.672;2024-02-26T02:07:55;100921.19;;;-1.69;66.33
61906;BME280;47863;55.766;37.672;2024-02-26T02:10:20;100958.22;;;-1.51;67.30
61906;BME280;47863;55.766;37.672;2024-02-26T02:12:51;100941.94;;;-1.61;66.21
61906;BME280;47863;55.766;37.672;2024-02-26T02:15:17;100948.75;;;-1.55;66.62
61906;BME280;47863;55.766;37.672;2024-02-26T02:17:43;100947.28;;;-1.64;67.16
61906;BME280;47863;55.766;37.672;2024-02-26T02:20:10;100954.16;;;-1.60;67.18
61906;BME280;47863;55.766;37.672;2024-02-26T02:22:40;100963.66;;;-1.56;67.21
61906;BME280;47863;55.766;37.672;2024-02-26T02:25:06;100931.88;;;-1.73;66.28
61906;BME280;47863;55.766;37.672;2024-02-26T02:27:31;100905.06;;;-1.83;66.40
61906;BME280;47863;55.766;37.672;2024-02-26T02:29:58;100924.78;;;-1.71;66.52
61906;BME280;47863;55.766;37.672;2024-02-26T02:32:24;100944.00;;;-1.69;66.78
61906;BME280;47863;55.766;37.672;2024-02-26T02:34:50;100909.91;;;-1.96;67.50
61906;BME280;47863;55.766;37.672;2024-02-26T02:37:16;100935.34;;;-1.73;67.82
61906;BME280;47863;55.766;37.672;2024-02-26T02:39:43;100921.09;;;-1.91;67.96
61906;BME280;47863;55.766;37.672;2024-02-26T02:42:09;100890.03;;;-2.03;67.09
61906;BME280;47863;55.766;37.672;2024-02-26T02:44:36;100927.66;;;-1.77;66.35
61906;BME280;47863;55.766;37.672;2024-02-26T02:47:01;100905.63;;;-1.98;66.64
61906;BME280;47863;55.766;37.672;2024-02-26T02:49:27;100905.66;;;-2.00;66.13
61906;BME280;47863;55.766;37.672;2024-02-26T02:51:53;100923.59;;;-1.88;66.63
61906;BME280;47863;55.766;37.672;2024-02-26T02:54:20;100923.47;;;-1.83;66.94
61906;BME280;47863;55.766;37.672;2024-02-26T02:56:45;100879.84;;;-2.12;66.05
61906;BME280;47863;55.766;37.672;2024-02-26T02:59:11;100932.94;;;-1.79;65.81
61906;BME280;47863;55.766;37.672;2024-02-26T03:01:37;100946.72;;;-1.72;66.09
61906;BME280;47863;55.766;37.672;2024-02-26T03:04:02;100944.22;;;-1.75;66.67
61906;BME280;47863;55.766;37.672;2024-02-26T03:06:28;100938.19;;;-1.79;66.42
61906;BME280;47863;55.766;37.672;2024-02-26T03:08:54;100941.59;;;-1.75;67.03
61906;BME280;47863;55.766;37.672;2024-02-26T03:11:20;100950.41;;;-1.78;67.16
61906;BME280;47863;55.766;37.672;2024-02-26T03:13:46;100939.19;;;-1.82;66.89
61906;BME280;47863;55.766;37.672;2024-02-26T03:16:11;100939.19;;;-1.82;67.13
61906;BME280;47863;55.766;37.672;2024-02-26T03:18:40;100947.91;;;-1.81;67.09
61906;BME280;47863;55.766;37.672;2024-02-26T03:21:06;100906.47;;;-1.98;65.92
61906;BME280;47863;55.766;37.672;2024-02-26T03:23:32;100884.50;;;-2.21;66.60
61906;BME280;47863;55.766;37.672;2024-02-26T03:26:03;100906.81;;;-2.07;66.83
61906;BME280;47863;55.766;37.672;2024-02-26T03:28:29;100941.53;;;-1.99;66.63
61906;BME280;47863;55.766;37.672;2024-02-26T03:30:56;100937.88;;;-1.95;67.17
61906;BME280;47863;55.766;37.672;2024-02-26T03:33:22;100893.41;;;-2.25;67.39
61906;BME280;47863;55.766;37.672;2024-02-26T03:35:47;100932.63;;;-1.95;67.62
61906;BME280;47863;55.766;37.672;2024-02-26T03:38:13;100924.03;;;-2.00;67.77
61906;BME280;47863;55.766;37.672;2024-02-26T03:40:39;100931.69;;;-1.94;67.81
61906;BME280;47863;55.766;37.672;2024-02-26T03:43:04;100940.56;;;-1.96;67.56
61906;BME280;47863;55.766;37.672;2024-02-26T03:45:32;100889.00;;;-2.24;67.42
61906;BME280;47863;55.766;37.672;2024-02-26T03:47:58;100928.53;;;-2.04;67.11
61906;BME280;47863;55.766;37.672;2024-02-26T03:50:24;100927.47;;;-1.98;67.12
61906;BME280;47863;55.766;37.672;2024-02-26T03:52:49;100928.44;;;-2.01;67.72
61906;BME280;47863;55.766;37.672;2024-02-26T03:55:15;100937.88;;;-1.95;67.43
61906;BME280;47863;55.766;37.672;2024-02-26T03:57:41;100874.31;;;-2.30;66.91
61906;BME280;47863;55.766;37.672;2024-02-26T04:00:07;100922.00;;;-2.17;66.37
61906;BME280;47863;55.766;37.672;2024-02-26T04:02:32;100883.78;;;-2.26;66.61
61906;BME280;47863;55.766;37.672;2024-02-26T04:04:58;100863.59;;;-2.49;67.00
61906;BME280;47863;55.766;37.672;2024-02-26T04:07:24;100941.63;;;-2.02;67.27
61906;BME280;47863;55.766;37.672;2024-02-26T04:09:50;100927.09;;;-2.12;66.97
61906;BME280;47863;55.766;37.672;2024-02-26T04:12:15;100908.94;;;-2.18;67.31
61906;BME280;47863;55.766;37.672;2024-02-26T04:14:41;100940.72;;;-2.01;67.27
61906;BME280;47863;55.766;37.672;2024-02-26T04:17:07;100906.53;;;-2.25;67.34
61906;BME280;47863;55.766;37.672;2024-02-26T04:19:32;100896.16;;;-2.29;67.06
61906;BME280;47863;55.766;37.672;2024-02-26T04:21:59;100941.78;;;-2.07;66.71
61906;BME280;47863;55.766;37.672;2024-02-26T04:24:25;100944.50;;;-2.10;66.37
61906;BME280;47863;55.766;37.672;2024-02-26T04:26:50;100947.25;;;-2.13;66.42
61906;BME280;47863;55.766;37.672;2024-02-26T04:29:16;100943.88;;;-2.16;66.42
61906;BME280;47863;55.766;37.672;2024-02-26T04:31:41;100943.00;;;-2.17;66.92
61906;BME280;47863;55.766;37.672;2024-02-26T04:34:08;100954.31;;;-2.15;66.81
61906;BME280;47863;55.766;37.672;2024-02-26T04:36:34;100896.63;;;-2.43;67.07
61906;BME280;47863;55.766;37.672;2024-02-26T04:38:59;100940.59;;;-2.23;67.12
61906;BME280;47863;55.766;37.672;2024-02-26T04:41:25;100938.69;;;-2.20;66.99
61906;BME280;47863;55.766;37.672;2024-02-26T04:43:50;100947.50;;;-2.21;67.39
61906;BME280;47863;55.766;37.672;2024-02-26T04:46:16;100920.88;;;-2.35;67.42
61906;BME280;47863;55.766;37.672;2024-02-26T04:48:41;100943.91;;;-2.18;67.42
61906;BME280;47863;55.766;37.672;2024-02-26T04:51:07;100896.75;;;-2.46;67.61
61906;BME280;47863;55.766;37.672;2024-02-26T04:53:33;100947.28;;;-2.14;67.21
61906;BME280;47863;55.766;37.672;2024-02-26T04:55:58;100945.47;;;-2.12;67.23
61906;BME280;47863;55.766;37.672;2024-02-26T04:58:24;100882.81;;;-2.48;67.25
61906;BME280;47863;55.766;37.672;2024-02-26T05:00:50;100889.56;;;-2.41;67.19
61906;BME280;47863;55.766;37.672;2024-02-26T05:03:15;100941.88;;;-2.10;66.95
61906;BME280;47863;55.766;37.672;2024-02-26T05:05:43;100879.19;;;-2.44;67.28
61906;BME280;47863;55.766;37.672;2024-02-26T05:08:08;100934.88;;;-2.09;67.00
61906;BME280;47863;55.766;37.672;2024-02-26T05:10:34;100902.44;;;-2.33;67.80
61906;BME280;47863;55.766;37.672;2024-02-26T05:13:05;100894.47;;;-2.30;67.68
61906;BME280;47863;55.766;37.672;2024-02-26T05:15:30;100888.53;;;-2.37;67.71
61906;BME280;47863;55.766;37.672;2024-02-26T05:17:56;100946.28;;;-2.10;67.55
61906;BME280;47863;55.766;37.672;2024-02-26T05:20:22;100905.72;;;-2.27;67.82
61906;BME280;47863;55.766;37.672;2024-02-26T05:22:47;100939.00;;;-2.02;68.24
61906;BME280;47863;55.766;37.672;2024-02-26T05:25:17;100929.19;;;-1.97;67.62
61906;BME280;47863;55.766;37.672;2024-02-26T05:27:44;100943.13;;;-1.95;67.46
61906;BME280;47863;55.766;37.672;2024-02-26T05:30:10;100939.59;;;-1.94;67.08
61906;BME280;47863;55.766;37.672;2024-02-26T05:32:36;100940.47;;;-1.93;66.90
61906;BME280;47863;55.766;37.672;2024-02-26T05:35:02;100916.44;;;-2.08;67.15
61906;BME280;47863;55.766;37.672;2024-02-26T05:37:31;100934.09;;;-1.88;66.77
61906;BME280;47863;55.766;37.672;2024-02-26T05:39:56;100927.34;;;-1.93;67.07
61906;BME280;47863;55.766;37.672;2024-02-26T05:42:23;100928.81;;;-1.86;67.27
61906;BME280;47863;55.766;37.672;2024-02-26T05:44:49;100893.56;;;-2.04;67.35
61906;BME280;47863;55.766;37.672;2024-02-26T05:47:14;100934.50;;;-1.73;67.35
61906;BME280;47863;55.766;37.672;2024-02-26T05:49:40;100897.47;;;-1.91;66.68
61906;BME280;47863;55.766;37.672;2024-02-26T05:52:06;100906.69;;;-1.79;66.60
61906;BME280;47863;55.766;37.672;2024-02-26T05:54:32;100930.81;;;-1.68;66.79
61906;BME280;47863;55.766;37.672;2024-02-26T05:56:58;100907.56;;;-1.80;67.07
61906;BME280;47863;55.766;37.672;2024-02-26T05:59:23;100929.66;;;-1.61;67.47
61906;BME280;47863;55.766;37.672;2024-02-26T06:01:49;100886.84;;;-1.88;66.93
61906;BME280;47863;55.766;37.672;2024-02-26T06:04:15;100953.72;;;-1.48;66.57
61906;BME280;47863;55.766;37.672;2024-02-26T06:06:42;100894.88;;;-1.67;65.87
61906;BME280;47863;55.766;37.672;2024-02-26T06:09:08;100930.50;;;-1.60;66.45
61906;BME280;47863;55.766;37.672;2024-02-26T06:11:33;100924.06;;;-1.51;66.44
61906;BME280;47863;55.766;37.672;2024-02-26T06:13:59;100933.31;;;-1.41;66.68
61906;BME280;47863;55.766;37.672;2024-02-26T06:16:25;100892.34;;;-1.70;66.94
61906;BME280;47863;55.766;37.672;2024-02-26T06:18:50;100861.06;;;-1.76;66.75
61906;BME280;47863;55.766;37.672;2024-02-26T06:21:16;100927.09;;;-1.38;66.36
61906;BME280;47863;55.766;37.672;2024-02-26T06:23:41;100917.84;;;-1.49;65.66
61906;BME280;47863;55.766;37.672;2024-02-26T06:26:07;100915.09;;;-1.46;66.29
61906;BME280;47863;55.766;37.672;2024-02-26T06:28:33;100917.56;;;-1.41;65.88
61906;BME280;47863;55.766;37.672;2024-02-26T06:31:01;100888.69;;;-1.66;66.25
61906;BME280;47863;55.766;37.672;2024-02-26T06:33:27;100944.25;;;-1.28;65.86
61906;BME280;47863;55.766;37.672;2024-02-26T06:35:52;100883.44;;;-1.66;65.64
61906;BME280;47863;55.766;37.672;2024-02-26T06:38:18;100841.63;;;-1.96;66.20
61906;BME280;47863;55.766;37.672;2024-02-26T06:40:44;100940.00;;;-1.32;66.56
61906;BME280;47863;55.766;37.672;2024-02-26T06:43:10;100944.13;;;-1.25;65.75
61906;BME280;47863;55.766;37.672;2024-02-26T06:45:35;100916.41;;;-1.34;65.02
61906;BME280;47863;55.766;37.672;2024-02-26T06:48:01;100934.06;;;-1.37;65.53
61906;BME280;47863;55.766;37.672;2024-02-26T06:50:28;100946.47;;;-1.41;65.56
61906;BME280;47863;55.766;37.672;2024-02-26T06:52:53;100955.31;;;-1.44;65.92
61906;BME280;47863;55.766;37.672;2024-02-26T06:55:19;100957.19;;;-1.47;66.42
61906;BME280;47863;55.766;37.672;2024-02-26T06:57:45;100961.34;;;-1.40;65.99
61906;BME280;47863;55.766;37.672;2024-02-26T07:00:11;100952.53;;;-1.39;66.01
61906;BME280;47863;55.766;37.672;2024-02-26T07:02:40;100843.00;;;-1.86;66.01
61906;BME280;47863;55.766;37.672;2024-02-26T07:05:06;100952.34;;;-1.34;66.09
61906;BME280;47863;55.766;37.672;2024-02-26T07:07:32;100903.91;;;-1.51;66.75
61906;BME280;47863;55.766;37.672;2024-02-26T07:09:58;100942.31;;;-1.01;66.15
61906;BME280;47863;55.766;37.672;2024-02-26T07:12:23;100902.31;;;-1.09;66.05
61906;BME280;47863;55.766;37.672;2024-02-26T07:14:49;100951.53;;;-0.67;65.50
61906;BME280;47863;55.766;37.672;2024-02-26T07:17:16;100932.94;;;-0.63;64.79
61906;BME280;47863;55.766;37.672;2024-02-26T07:19:42;100858.84;;;-0.96;64.98
61906;BME280;47863;55.766;37.672;2024-02-26T07:22:08;100941.81;;;-0.43;64.00
61906;BME280;47863;55.766;37.672;2024-02-26T07:24:34;100928.41;;;-0.37;64.75
61906;BME280;47863;55.766;37.672;2024-02-26T07:26:59;100924.44;;;-0.27;64.01
61906;BME280;47863;55.766;37.672;2024-02-26T07:29:25;100918.88;;;-0.19;63.71
61906;BME280;47863;55.766;37.672;2024-02-26T07:31:51;100909.84;;;-0.13;62.22
61906;BME280;47863;55.766;37.672;2024-02-26T07:34:16;100943.56;;;0.19;62.56
61906;BME280;47863;55.766;37.672;2024-02-26T07:36:42;100898.97;;;0.15;62.31
61906;BME280;47863;55.766;37.672;2024-02-26T07:39:08;100892.63;;;0.39;62.88
61906;BME280;47863;55.766;37.672;2024-02-26T07:41:33;100866.13;;;0.62;61.52
61906;BME280;47863;55.766;37.672;2024-02-26T07:43:59;100885.84;;;0.91;62.06
61906;BME280;47863;55.766;37.672;2024-02-26T07:46:25;100877.97;;;1.08;60.78
61906;BME280;47863;55.766;37.672;2024-02-26T07:48:52;100853.81;;;1.17;60.13
61906;BME280;47863;55.766;37.672;2024-02-26T07:51:18;100931.44;;;1.85;59.67
61906;BME280;47863;55.766;37.672;2024-02-26T07:53:44;100868.50;;;1.75;59.35
61906;BME280;47863;55.766;37.672;2024-02-26T07:56:10;100880.28;;;2.03;59.99
61906;BME280;47863;55.766;37.672;2024-02-26T07:58:35;100889.63;;;1.93;59.37
61906;BME280;47863;55.766;37.672;2024-02-26T08:01:01;100860.25;;;1.82;60.18
61906;BME280;47863;55.766;37.672;2024-02-26T08:03:27;100930.63;;;2.35;57.55
61906;BME280;47863;55.766;37.672;2024-02-26T08:05:52;100959.66;;;2.70;58.07
61906;BME280;47863;55.766;37.672;2024-02-26T08:08:18;100931.63;;;3.15;57.44
61906;BME280;47863;55.766;37.672;2024-02-26T08:10:47;100927.75;;;3.52;57.86
61906;BME280;47863;55.766;37.672;2024-02-26T08:13:12;100935.22;;;3.76;57.61
61906;BME280;47863;55.766;37.672;2024-02-26T08:15:38;100880.75;;;3.56;57.86
61906;BME280;47863;55.766;37.672;2024-02-26T08:18:04;100882.59;;;3.70;58.81
61906;BME280;47863;55.766;37.672;2024-02-26T08:20:30;100913.63;;;3.68;57.41
61906;BME280;47863;55.766;37.672;2024-02-26T08:22:57;100930.34;;;3.38;58.42
61906;BME280;47863;55.766;37.672;2024-02-26T08:25:23;100903.28;;;3.01;57.99
61906;BME280;47863;55.766;37.672;2024-02-26T08:27:50;100907.06;;;2.64;57.03
61906;BME280;47863;55.766;37.672;2024-02-26T08:30:16;100878.59;;;2.20;57.38
61906;BME280;47863;55.766;37.672;2024-02-26T08:32:43;100922.03;;;2.31;58.18
61906;BME280;47863;55.766;37.672;2024-02-26T08:35:09;100910.44;;;2.16;58.16
61906;BME280;47863;55.766;37.672;2024-02-26T08:37:35;100925.53;;;2.14;58.81
61906;BME280;47863;55.766;37.672;2024-02-26T08:40:01;100895.63;;;1.96;58.19
61906;BME280;47863;55.766;37.672;2024-02-26T08:42:26;100911.94;;;2.05;57.16
61906;BME280;47863;55.766;37.672;2024-02-26T08:44:52;100914.06;;;1.81;57.77
61906;BME280;47863;55.766;37.672;2024-02-26T08:47:20;100904.41;;;1.79;58.45
61906;BME280;47863;55.766;37.672;2024-02-26T08:49:45;100865.41;;;1.85;59.05
61906;BME280;47863;55.766;37.672;2024-02-26T08:52:11;100896.44;;;2.32;58.14
61906;BME280;47863;55.766;37.672;2024-02-26T08:54:37;100894.75;;;2.47;58.11
61906;BME280;47863;55.766;37.672;2024-02-26T08:57:03;100895.22;;;2.55;57.01
61906;BME280;47863;55.766;37.672;2024-02-26T08:59:28;100892.59;;;2.71;57.19
61906;BME280;47863;55.766;37.672;2024-02-26T09:01:54;100892.59;;;2.87;57.04
61906;BME280;47863;55.766;37.672;2024-02-26T09:04:20;100892.75;;;3.00;56.63
61906;BME280;47863;55.766;37.672;2024-02-26T09:06:46;100899.94;;;3.13;56.55
61906;BME280;47863;55.766;37.672;2024-02-26T09:09:12;100890.88;;;3.17;56.83
61906;BME280;47863;55.766;37.672;2024-02-26T09:11:37;100893.63;;;3.62;56.48
61906;BME280;47863;55.766;37.672;2024-02-26T09:14:03;100885.63;;;3.78;56.39
61906;BME280;47863;55.766;37.672;2024-02-26T09:16:29;100868.28;;;3.72;56.37
61906;BME280;47863;55.766;37.672;2024-02-26T09:18:56;100857.88;;;3.69;56.50
61906;BME280;47863;55.766;37.672;2024-02-26T09:21:22;100900.03;;;3.88;56.46
61906;BME280;47863;55.766;37.672;2024-02-26T09:23:52;100887.44;;;3.77;55.39
61906;BME280;47863;55.766;37.672;2024-02-26T09:26:18;100871.94;;;3.86;56.37
61906;BME280;47863;55.766;37.672;2024-02-26T09:28:45;100888.44;;;4.05;54.56
61906;BME280;47863;55.766;37.672;2024-02-26T09:31:11;100808.66;;;3.65;55.34
61906;BME280;47863;55.766;37.672;2024-02-26T09:33:36;100895.56;;;4.19;53.70
61906;BME280;47863;55.766;37.672;2024-02-26T09:36:04;100869.13;;;4.03;53.66
61906;BME280;47863;55.766;37.672;2024-02-26T09:38:31;100866.94;;;3.65;52.04
61906;BME280;47863;55.766;37.672;2024-02-26T09:41:02;100895.78;;;3.55;53.59
61906;BME280;47863;55.766;37.672;2024-02-26T09:43:34;100849.22;;;3.05;54.14
61906;BME280;47863;55.766;37.672;2024-02-26T09:46:00;100893.44;;;3.19;54.33
61906;BME280;47863;55.766;37.672;2024-02-26T09:48:25;100866.22;;;3.01;55.03
61906;BME280;47863;55.766;37.672;2024-02-26T09:50:52;100894.22;;;3.05;54.21
61906;BME280;47863;55.766;37.672;2024-02-26T09:53:20;100774.63;;;2.19;55.33
61906;BME280;47863;55.766;37.672;2024-02-26T09:55:47;100897.00;;;2.70;55.73
61906;BME280;47863;55.766;37.672;2024-02-26T09:58:13;100897.34;;;2.80;54.64
61906;BME280;47863;55.766;37.672;2024-02-26T10:00:47;100855.34;;;2.58;54.06
61906;BME280;47863;55.766;37.672;2024-02-26T10:03:18;100878.25;;;2.75;54.77
61906;BME280;47863;55.766;37.672;2024-02-26T10:05:48;100875.84;;;2.86;54.96
61906;BME280;47863;55.766;37.672;2024-02-26T10:08:15;100868.00;;;3.01;55.23
61906;BME280;47863;55.766;37.672;2024-02-26T10:10:41;100877.00;;;3.44;55.49
61906;BME280;47863;55.766;37.672;2024-02-26T10:13:07;100875.41;;;3.72;55.02
61906;BME280;47863;55.766;37.672;2024-02-26T10:15:36;100883.97;;;3.91;53.88
61906;BME280;47863;55.766;37.672;2024-02-26T10:18:07;100844.69;;;4.12;53.66
61906;BME280;47863;55.766;37.672;2024-02-26T10:20:33;100882.38;;;4.46;51.47
61906;BME280;47863;55.766;37.672;2024-02-26T10:23:02;100867.31;;;4.32;51.29
61906;BME280;47863;55.766;37.672;2024-02-26T10:25:29;100889.59;;;4.59;50.90
61906;BME280;47863;55.766;37.672;2024-02-26T10:27:59;100820.72;;;4.28;50.29
61906;BME280;47863;55.766;37.672;2024-02-26T10:30:27;100845.16;;;4.62;50.85
61906;BME280;47863;55.766;37.672;2024-02-26T10:32:53;100875.16;;;4.77;51.76
61906;BME280;47863;55.766;37.672;2024-02-26T10:35:19;100873.97;;;4.68;52.00
61906;BME280;47863;55.766;37.672;2024-02-26T10:37:48;100841.47;;;4.07;50.11
61906;BME280;47863;55.766;37.672;2024-02-26T10:40:14;100867.59;;;3.99;51.55
61906;BME280;47863;55.766;37.672;2024-02-26T10:42:41;100858.69;;;4.14;51.19
61906;BME280;47863;55.766;37.672;2024-02-26T10:45:08;100845.09;;;4.21;50.92
61906;BME280;47863;55.766;37.672;2024-02-26T10:47:35;100827.81;;;4.28;51.28
61906;BME280;47863;55.766;37.672;2024-02-26T10:50:03;100875.28;;;4.61;51.11
61906;BME280;47863;55.766;37.672;2024-02-26T10:52:31;100807.19;;;4.33;50.54
61906;BME280;47863;55.766;37.672;2024-02-26T10:55:01;100850.75;;;4.43;50.89
61906;BME280;47863;55.766;37.672;2024-02-26T10:57:41;100869.03;;;4.62;50.07
61906;BME280;47863;55.766;37.672;2024-02-26T11:00:10;100830.19;;;4.47;50.62
61906;BME280;47863;55.766;37.672;2024-02-26T11:02:40;100843.88;;;4.68;49.98
61906;BME280;47863;55.766;37.672;2024-02-26T11:05:07;100813.34;;;4.19;49.43
61906;BME280;47863;55.766;37.672;2024-02-26T11:07:34;100848.38;;;4.10;51.05
61906;BME280;47863;55.766;37.672;2024-02-26T11:10:05;100847.69;;;3.77;52.16
61906;BME280;47863;55.766;37.672;2024-02-26T11:12:32;100853.22;;;3.58;53.06
61906;BME280;47863;55.766;37.672;2024-02-26T11:15:01;100866.25;;;3.31;53.21
61906;BME280;47863;55.766;37.672;2024-02-26T11:17:28;100852.13;;;3.01;53.55
61906;BME280;47863;55.766;37.672;2024-02-26T11:19:58;100824.31;;;2.77;53.28
61906;BME280;47863;55.766;37.672;2024-02-26T11:22:24;100848.19;;;2.92;54.39
61906;BME280;47863;55.766;37.672;2024-02-26T11:24:52;100849.06;;;2.92;54.09
61906;BME280;47863;55.766;37.672;2024-02-26T11:27:22;100852.22;;;2.99;53.72
61906;BME280;47863;55.766;37.672;2024-02-26T11:29:51;100835.16;;;2.89;54.11
61906;BME280;47863;55.766;37.672;2024-02-26T11:32:17;100748.41;;;2.78;53.27
61906;BME280;47863;55.766;37.672;2024-02-26T11:34:43;100836.28;;;3.61;52.55
61906;BME280;47863;55.766;37.672;2024-02-26T11:37:14;100799.34;;;3.44;52.80
61906;BME280;47863;55.766;37.672;2024-02-26T11:39:41;100801.81;;;3.47;52.61
61906;BME280;47863;55.766;37.672;2024-02-26T11:42:08;100831.41;;;3.53;52.93
61906;BME280;47863;55.766;37.672;2024-02-26T11:44:34;100821.78;;;3.52;52.88
61906;BME280;47863;55.766;37.672;2024-02-26T11:47:18;100832.38;;;3.97;52.31
61906;BME280;47863;55.766;37.672;2024-02-26T11:49:44;100821.94;;;3.94;52.20
61906;BME280;47863;55.766;37.672;2024-02-26T11:52:10;100788.88;;;3.71;52.51
61906;BME280;47863;55.766;37.672;2024-02-26T11:54:57;100826.97;;;3.98;52.65
61906;BME280;47863;55.766;37.672;2024-02-26T11:57:49;100836.50;;;4.73;51.26
61906;BME280;47863;55.766;37.672;2024-02-26T12:00:15;100812.88;;;5.50;50.53
61906;BME280;47863;55.766;37.672;2024-02-26T12:02:52;100771.16;;;6.03;49.06
61906;BME280;47863;55.766;37.672;2024-02-26T12:05:32;100814.84;;;6.74;48.33
61906;BME280;47863;55.766;37.672;2024-02-26T12:08:03;100789.41;;;6.94;46.29
61906;BME280;47863;55.766;37.672;2024-02-26T12:10:37;100760.81;;;6.85;46.01
61906;BME280;47863;55.766;37.672;2024-02-26T12:13:15;100757.56;;;6.93;45.14
61906;BME280;47863;55.766;37.672;2024-02-26T12:15:54;100821.53;;;7.52;46.41
61906;BME280;47863;55.766;37.672;2024-02-26T12:18:21;100805.44;;;7.65;45.85
61906;BME280;47863;55.766;37.672;2024-02-26T12:21:00;100811.03;;;7.62;45.98
61906;BME280;47863;55.766;37.672;2024-02-26T12:23:26;100810.16;;;7.50;45.27
61906;BME280;47863;55.766;37.672;2024-02-26T12:25:54;100784.69;;;7.22;46.02
61906;BME280;47863;55.766;37.672;2024-02-26T12:28:19;100780.81;;;6.91;45.16
61906;BME280;47863;55.766;37.672;2024-02-26T12:30:45;100815.25;;;6.44;46.33
61906;BME280;47863;55.766;37.672;2024-02-26T12:33:11;100810.56;;;5.84;48.07
61906;BME280;47863;55.766;37.672;2024-02-26T12:35:37;100827.00;;;5.38;48.74
61906;BME280;47863;55.766;37.672;2024-02-26T12:38:03;100817.69;;;4.90;49.99
61906;BME280;47863;55.766;37.672;2024-02-26T12:40:31;100817.97;;;4.30;51.01